Time;durP1;ratioP1;P1;durP2;ratioP2;P2;SDS_P1;SDS_P2;PMS_P1;PMS_P2;Temp;Humidity;BMP_temperature;BMP_pressure;BME280_temperature;BME280_humidity;BME280_pressure;Samples;Min_cycle;Max_cycle;Signal;HPM_P1;HPM_P2
2021/06/14 00:00:39;;;;;;;15.50;7.97;;;;;;;10.82;76.16;101301.84;3568605;80;98774;-80
2021/06/14 00:05:43;;;;;;;15.00;7.77;;;;;;;10.72;76.52;101301.82;3573976;81;32093;-79
2021/06/14 00:10:49;;;;;;;17.85;7.58;;;;;;;10.66;76.43;101306.00;3565385;81;98525;-80
2021/06/14 00:15:51;;;;;;;15.90;8.40;;;;;;;10.58;76.68;101304.81;3571524;81;25928;-81
2021/06/14 00:20:57;;;;;;;14.27;7.30;;;;;;;10.50;76.74;101307.14;3566427;80;98536;-80
2021/06/14 00:26:01;;;;;;;12.98;6.80;;;;;;;10.41;77.11;101297.69;3578155;81;26530;-80
2021/06/14 00:31:02;;;;;;;15.50;7.40;;;;;;;10.34;77.09;101300.27;3565027;81;98865;-80
2021/06/14 00:36:04;;;;;;;14.23;7.47;;;;;;;10.27;77.72;101291.03;3575671;81;33911;-81
2021/06/14 00:41:07;;;;;;;13.98;7.22;;;;;;;10.20;77.53;101297.14;3561880;81;98535;-80
2021/06/14 00:46:08;;;;;;;14.13;7.40;;;;;;;10.15;77.79;101300.14;3577155;81;32371;-80
2021/06/14 00:51:10;;;;;;;14.17;7.77;;;;;;;10.05;77.96;101301.25;3573981;81;98579;-80
2021/06/14 00:56:13;;;;;;;15.90;7.43;;;;;;;9.97;78.25;101298.06;3585371;81;31629;-81
2021/06/14 01:01:14;;;;;;;14.93;7.83;;;;;;;9.91;78.33;101296.13;3577021;80;98661;-79
2021/06/14 01:06:15;;;;;;;17.07;9.23;;;;;;;9.87;78.78;101299.35;3578645;81;31659;-80
2021/06/14 01:11:37;;;;;;;15.30;8.17;;;;;;;9.81;79.11;101288.98;3578795;81;98582;-80
2021/06/14 01:17:01;;;;;;;16.50;9.20;;;;;;;9.74;79.21;101290.95;3565181;81;33018;-80
2021/06/14 01:22:31;;;;;;;18.37;9.30;;;;;;;9.69;79.43;101298.06;3578090;81;29540;-80
2021/06/14 01:27:50;;;;;;;14.68;8.25;;;;;;;9.64;79.60;101301.63;3568592;81;98752;-80
2021/06/14 01:32:51;;;;;;;16.27;8.93;;;;;;;9.59;79.28;101297.19;3576079;80;31385;-78
2021/06/14 01:37:57;;;;;;;15.97;8.00;;;;;;;9.55;79.76;101296.27;3577598;81;98563;-80
2021/06/14 01:43:03;;;;;;;15.77;8.67;;;;;;;9.49;79.85;101303.17;3579757;81;34881;-79
2021/06/14 01:48:06;;;;;;;14.28;8.48;;;;;;;9.44;80.09;101302.63;3570333;81;98652;-81
2021/06/14 01:53:08;;;;;;;17.32;8.23;;;;;;;9.41;80.25;101307.43;3582984;81;31352;-80
2021/06/14 01:58:11;;;;;;;19.05;8.90;;;;;;;9.34;80.71;101314.91;3567903;81;98767;-80
2021/06/14 02:03:14;;;;;;;20.95;9.25;;;;;;;9.29;80.83;101308.84;3574177;81;31790;-80
2021/06/14 02:08:18;;;;;;;19.12;9.03;;;;;;;9.26;81.21;101304.05;3566343;81;98602;-80
2021/06/14 02:13:20;;;;;;;19.10;9.53;;;;;;;9.22;81.33;101303.14;3570511;81;29199;-80
2021/06/14 02:18:24;;;;;;;17.37;9.20;;;;;;;9.17;81.51;101294.55;3548120;80;98366;-80
2021/06/14 02:23:25;;;;;;;15.73;9.03;;;;;;;9.14;81.62;101289.77;3577934;80;30437;-79
2021/06/14 02:28:26;;;;;;;16.87;9.77;;;;;;;9.10;81.80;101282.58;3577600;80;98727;-80
2021/06/14 02:33:27;;;;;;;19.37;9.30;;;;;;;9.08;81.98;101282.91;3579332;81;31663;-80
2021/06/14 02:38:29;;;;;;;19.53;8.67;;;;;;;9.03;82.12;101272.17;3574140;81;98711;-80
2021/06/14 02:43:30;;;;;;;16.02;9.48;;;;;;;9.04;82.20;101268.83;3584815;81;31711;-80
2021/06/14 02:48:32;;;;;;;21.53;9.97;;;;;;;9.02;82.44;101265.64;3488485;83;101113;-80
2021/06/14 02:53:34;;;;;;;14.93;9.18;;;;;;;9.01;82.99;101263.48;3491852;83;32421;-80
2021/06/14 02:58:42;;;;;;;19.90;10.55;;;;;;;9.00;82.89;101268.72;3470873;83;98781;-80
2021/06/14 03:03:44;;;;;;;18.33;10.77;;;;;;;8.98;83.21;101267.47;3419130;84;27543;-79
2021/06/14 03:08:46;;;;;;;18.10;10.05;;;;;;;8.99;83.15;101265.76;3415853;84;98890;-80
2021/06/14 03:13:48;;;;;;;20.63;10.03;;;;;;;8.99;83.60;101269.88;3426832;84;31396;-79
2021/06/14 03:18:50;;;;;;;24.37;11.70;;;;;;;8.98;83.70;101269.66;3409162;84;98698;-79
2021/06/14 03:23:52;;;;;;;20.20;9.77;;;;;;;9.03;83.95;101267.23;3424540;84;31416;-79
2021/06/14 03:28:54;;;;;;;22.77;11.43;;;;;;;9.06;83.92;101264.59;3421025;84;98646;-79
2021/06/14 03:33:55;;;;;;;20.73;10.87;;;;;;;9.11;84.65;101262.20;3427316;84;28502;-79
2021/06/14 03:38:57;;;;;;;20.63;11.13;;;;;;;9.16;84.64;101272.36;3423777;84;98731;-80
2021/06/14 03:44:03;;;;;;;19.53;10.07;;;;;;;9.22;84.95;101270.97;3427592;84;29514;-79
2021/06/14 03:49:05;;;;;;;21.82;12.60;;;;;;;9.30;85.41;101270.60;3411258;84;98840;-80
2021/06/14 03:54:06;;;;;;;21.45;10.88;;;;;;;9.39;85.89;101270.68;3417966;84;31407;-80
2021/06/14 03:59:07;;;;;;;21.48;11.63;;;;;;;9.47;85.99;101278.00;3417480;84;99081;-79
2021/06/14 04:09:27;;;;;;;21.07;11.63;;;;;;;9.67;86.37;101285.26;3425224;83;98903;-80
2021/06/14 04:14:28;;;;;;;23.87;11.77;;;;;;;9.78;86.40;101285.55;3434036;84;31731;-80
2021/06/14 04:19:28;;;;;;;26.77;12.57;;;;;;;9.91;86.98;101285.70;3419921;83;98838;-81
2021/06/14 04:24:30;;;;;;;23.27;13.63;;;;;;;10.01;86.85;101286.56;3434259;83;31653;-80
2021/06/14 04:29:30;;;;;;;24.17;13.07;;;;;;;10.15;86.16;101285.61;3420365;83;99270;-80
2021/06/14 04:34:31;;;;;;;24.03;13.13;;;;;;;10.27;86.18;101275.33;3422784;84;31740;-81
2021/06/14 04:39:33;;;;;;;23.73;13.40;;;;;;;10.46;86.19;101276.00;3415850;83;99040;-81
2021/06/14 04:44:34;;;;;;;22.97;12.20;;;;;;;10.63;86.08;101277.80;3426712;84;31693;-81
2021/06/14 04:49:35;;;;;;;22.20;12.83;;;;;;;10.84;85.98;101274.17;3412769;84;99317;-81
2021/06/14 04:54:36;;;;;;;27.17;12.83;;;;;;;11.08;85.28;101264.31;3430590;83;31714;-81
2021/06/14 04:59:38;;;;;;;20.77;11.53;;;;;;;11.33;85.17;101267.61;3433968;83;99248;-81
2021/06/14 05:04:39;;;;;;;22.27;11.63;;;;;;;11.57;85.32;101265.94;3498154;83;30278;-80
2021/06/14 05:09:40;;;;;;;21.07;11.23;;;;;;;11.86;84.99;101263.98;3487615;83;99260;-79
2021/06/14 05:14:41;;;;;;;21.40;11.07;;;;;;;12.25;84.35;101266.86;3491857;83;26297;-80
2021/06/14 05:19:42;;;;;;;19.90;9.97;;;;;;;12.71;84.35;101273.36;3474990;82;98866;-81
2021/06/14 05:24:43;;;;;;;20.93;9.90;;;;;;;13.32;84.02;101268.97;3484671;82;32605;-82
2021/06/14 05:29:44;;;;;;;20.10;9.63;;;;;;;14.06;83.33;101271.44;3489106;83;98635;-83
2021/06/14 05:34:45;;;;;;;20.27;8.73;;;;;;;14.94;82.17;101270.84;3489626;82;34986;-82
2021/06/14 05:39:47;;;;;;;17.27;8.73;;;;;;;15.76;81.15;101273.68;3487461;82;99227;-83
2021/06/14 05:44:48;;;;;;;17.23;8.37;;;;;;;16.69;79.20;101276.45;3496960;83;25968;-83
2021/06/14 05:49:48;;;;;;;18.35;9.35;;;;;;;17.62;77.23;101275.86;3482462;82;99088;-84
2021/06/14 05:54:51;;;;;;;15.35;8.78;;;;;;;18.57;75.93;101271.33;3493232;82;25838;-84
2021/06/14 05:59:51;;;;;;;14.47;6.92;;;;;;;19.45;73.69;101271.89;3479611;83;99128;-83
2021/06/14 06:04:52;;;;;;;17.20;8.65;;;;;;;20.29;70.83;101278.56;3464632;83;27911;-84
2021/06/14 06:09:53;;;;;;;20.45;7.87;;;;;;;21.11;70.07;101273.20;3566351;81;99304;-84
2021/06/14 06:14:54;;;;;;;15.10;7.00;;;;;;;21.82;67.08;101276.19;3567987;81;28876;-83
2021/06/14 06:19:56;;;;;;;15.38;7.83;;;;;;;22.38;63.94;101281.31;3563934;81;98943;-84
2021/06/14 06:24:57;;;;;;;13.72;7.12;;;;;;;22.87;62.76;101279.32;3575179;81;34887;-84
2021/06/14 06:29:58;;;;;;;15.05;8.10;;;;;;;23.41;60.91;101283.91;3569343;80;98851;-84
2021/06/14 06:34:59;;;;;;;18.73;7.47;;;;;;;23.94;59.54;101288.81;3570604;81;34786;-83
2021/06/14 06:40:00;;;;;;;14.68;7.45;;;;;;;24.33;58.22;101294.02;3564122;81;99051;-84
2021/06/14 06:45:01;;;;;;;15.05;6.83;;;;;;;24.79;56.16;101291.16;3567663;81;34880;-83
2021/06/14 06:50:05;;;;;;;13.98;6.47;;;;;;;24.92;54.93;101294.11;3571950;81;99130;-84
2021/06/14 06:55:09;;;;;;;13.60;6.83;;;;;;;25.23;54.42;101299.88;3572080;81;34865;-84
2021/06/14 07:00:15;;;;;;;19.00;8.07;;;;;;;25.37;53.51;101295.95;3562153;81;98761;-85
2021/06/14 07:05:17;;;;;;;15.58;7.08;;;;;;;25.92;53.94;101288.69;3575865;81;25928;-84
2021/06/14 07:10:17;;;;;;;14.65;6.72;;;;;;;26.32;52.17;101292.36;3560861;81;98608;-84
2021/06/14 07:15:18;;;;;;;12.80;7.45;;;;;;;26.62;50.06;101290.14;3561549;81;35293;-83
2021/06/14 07:20:19;;;;;;;17.15;6.87;;;;;;;26.43;49.61;101281.43;3561860;81;98849;-84
2021/06/14 07:25:22;;;;;;;12.63;7.07;;;;;;;26.47;48.68;101287.08;3573688;81;35931;-85
2021/06/14 07:30:23;;;;;;;12.98;6.47;;;;;;;26.39;47.78;101285.81;3567765;81;98840;-86
2021/06/14 07:35:24;;;;;;;12.50;6.50;;;;;;;26.30;48.36;101283.55;3478922;83;35409;-86
2021/06/14 07:40:25;;;;;;;12.68;5.70;;;;;;;26.43;47.31;101275.14;3490669;82;98856;-85
2021/06/14 07:45:25;;;;;;;11.00;6.00;;;;;;;26.56;45.70;101275.06;3484427;83;35389;-86
2021/06/14 07:50:27;;;;;;;14.07;7.30;;;;;;;26.90;45.78;101274.20;3485296;83;99110;-86
2021/06/14 07:55:28;;;;;;;16.27;6.28;;;;;;;27.14;44.97;101269.52;3489615;83;34907;-86
2021/06/14 08:00:29;;;;;;;14.75;6.30;;;;;;;27.31;44.96;101266.55;3484356;83;98506;-87
2021/06/14 08:05:30;;;;;;;11.20;6.03;;;;;;;27.92;44.38;101268.24;3495748;83;34821;-86
2021/06/14 08:10:31;;;;;;;13.40;5.65;;;;;;;28.37;44.04;101261.78;3484706;83;98836;-87
2021/06/14 08:15:33;;;;;;;10.40;5.05;;;;;;;29.04;43.05;101260.63;3496419;83;35431;-86
2021/06/14 08:20:40;;;;;;;12.70;5.33;;;;;;;29.47;42.81;101266.28;3485724;82;98906;-88
2021/06/14 08:25:38;;;;;;;11.45;5.78;;;;;;;29.51;40.52;101276.16;3491155;83;35274;-87
2021/06/14 08:30:39;;;;;;;15.30;5.53;;;;;;;29.45;40.52;101263.92;3436357;81;98624;-88
2021/06/14 08:35:40;;;;;;;13.08;6.40;;;;;;;29.71;39.85;101267.80;3503606;82;35950;-87
2021/06/14 08:40:41;;;;;;;15.90;6.17;;;;;;;29.69;39.50;101266.73;3479972;83;98858;-87
2021/06/14 08:45:43;;;;;;;11.80;5.90;;;;;;;29.54;38.91;101268.11;3502289;82;35479;-87
2021/06/14 08:50:45;;;;;;;12.53;5.90;;;;;;;29.17;38.70;101266.85;3502467;82;99036;-90
2021/06/14 08:55:46;;;;;;;18.87;9.08;;;;;;;29.00;38.51;101258.64;3517372;82;35479;-88
2021/06/14 09:00:48;;;;;;;12.47;6.47;;;;;;;29.08;39.55;101256.20;3510374;81;98630;-87
2021/06/14 09:05:49;;;;;;;11.48;5.62;;;;;;;29.64;38.76;101252.56;3489665;82;34809;-87
2021/06/14 09:10:51;;;;;;;14.85;6.40;;;;;;;29.15;37.80;101247.34;3493573;82;99056;-88
2021/06/14 09:16:06;;;;;;;14.20;6.42;;;;;;;28.77;37.96;101243.79;3489627;83;34902;-86
2021/06/14 09:21:14;;;;;;;9.70;5.15;;;;;;;28.26;37.65;101236.04;3490044;82;98738;-90
2021/06/14 09:26:35;;;;;;;12.58;6.25;;;;;;;28.45;38.79;101237.53;3490473;83;25844;-91
2021/06/14 09:31:48;;;;;;;12.13;6.65;;;;;;;28.86;38.13;101235.23;3487416;83;99335;-90
2021/06/14 09:36:59;;;;;;;12.30;5.67;;;;;;;29.55;38.46;101232.02;3485939;83;98731;-84
2021/06/14 09:42:00;;;;;;;22.40;5.75;;;;;;;29.69;36.90;101224.16;3434032;84;26438;-91
2021/06/14 09:47:10;;;;;;;12.03;5.65;;;;;;;29.60;37.06;101208.02;3544102;81;98688;-90
2021/06/14 09:52:23;;;;;;;10.63;5.25;;;;;;;29.47;35.73;101199.63;3558679;81;26195;-90
2021/06/14 09:57:29;;;;;;;12.40;5.55;;;;;;;30.02;36.76;101197.75;3555375;81;98730;-89
2021/06/14 10:02:35;;;;;;;11.45;4.70;;;;;;;30.69;36.12;101195.44;3567473;81;26344;-90
2021/06/14 10:07:47;;;;;;;9.90;5.08;;;;;;;30.83;34.94;101185.28;3567953;81;98976;-87
2021/06/14 10:12:54;;;;;;;10.95;5.50;;;;;;;31.53;36.17;101184.51;3569343;81;25866;-91
2021/06/14 10:17:55;;;;;;;11.22;5.60;;;;;;;31.96;35.33;101188.26;3561740;81;99083;-89
2021/06/14 10:22:59;;;;;;;11.78;5.67;;;;;;;31.67;34.76;101177.92;3585032;81;34316;-88
2021/06/14 10:28:01;;;;;;;;;;;;;;;32.35;33.35;101179.36;3577659;81;99108;-89
2021/06/14 10:33:05;;;;;;;9.65;4.80;;;;;;;32.46;31.26;101173.08;3579766;81;25934;-89
2021/06/14 10:38:08;;;;;;;10.38;4.97;;;;;;;32.59;32.29;101173.40;3579964;81;98817;-90
2021/06/14 10:43:10;;;;;;;11.53;5.20;;;;;;;33.14;33.00;101175.71;3580911;81;25961;-89
2021/06/14 10:48:11;;;;;;;10.72;5.85;;;;;;;33.68;31.50;101165.03;3570599;81;98745;-92
2021/06/14 10:53:23;;;;;;;9.90;4.58;;;;;;;33.88;31.67;101162.61;3573127;81;26004;-90
2021/06/14 10:58:24;;;;;;;10.30;4.47;;;;;;;33.42;29.87;101152.31;3574694;81;98972;-90
2021/06/14 11:03:41;;;;;;;13.43;5.30;;;;;;;33.59;31.33;101141.04;3570630;81;25962;-90
2021/06/14 11:08:44;;;;;;;9.98;4.72;;;;;;;33.64;31.34;101136.61;3570764;81;98943;-89
2021/06/14 11:13:52;;;;;;;10.13;4.92;;;;;;;33.56;31.13;101134.92;3574916;81;26203;-88
2021/06/14 11:19:03;;;;;;;10.18;5.08;;;;;;;33.96;31.06;101131.56;3567512;81;99283;-90
2021/06/14 11:24:11;;;;;;;10.63;4.60;;;;;;;33.92;30.93;101132.47;3567287;80;26053;-89
2021/06/14 11:29:17;;;;;;;8.03;4.40;;;;;;;33.43;30.17;101121.83;3571886;81;99052;-88
2021/06/14 11:34:20;;;;;;;10.00;4.70;;;;;;;33.46;30.35;101113.64;3576968;80;26451;-88
2021/06/14 11:39:22;;;;;;;11.37;4.53;;;;;;;33.53;29.39;101107.43;3565837;81;99391;-89
2021/06/14 11:44:32;;;;;;;9.80;4.30;;;;;;;33.02;29.00;101105.67;3578172;81;26231;-88
2021/06/14 11:49:35;;;;;;;9.10;5.10;;;;;;;33.05;30.24;101096.06;3551011;81;98563;-89
2021/06/14 11:54:36;;;;;;;9.27;4.33;;;;;;;33.04;28.71;101092.45;3574918;81;25948;-89
2021/06/14 11:59:37;;;;;;;9.70;4.40;;;;;;;32.70;29.91;101090.77;3576727;81;98725;-86
2021/06/14 12:04:38;;;;;;;7.40;3.83;;;;;;;32.83;30.11;101086.83;3580177;81;26590;-88
2021/06/14 12:09:40;;;;;;;13.32;5.10;;;;;;;32.56;29.28;101078.16;3570114;81;98872;-88
2021/06/14 12:14:52;;;;;;;10.55;5.20;;;;;;;32.66;29.58;101075.20;3575650;81;36029;-89
2021/06/14 12:19:54;;;;;;;8.60;3.95;;;;;;;32.16;28.22;101065.66;3565426;80;99349;-89
2021/06/14 12:25:08;;;;;;;9.83;4.60;;;;;;;32.00;29.56;101054.33;3570635;81;25854;-89
2021/06/14 12:30:13;;;;;;;9.93;5.00;;;;;;;31.34;28.65;101050.98;3570092;80;98981;-86
2021/06/14 12:35:15;;;;;;;14.73;5.85;;;;;;;31.12;29.25;101041.47;3579402;80;26084;-87
2021/06/14 12:40:24;;;;;;;9.98;4.75;;;;;;;31.38;28.77;101030.86;3568152;80;98772;-87
2021/06/14 12:45:26;;;;;;;10.82;5.37;;;;;;;30.72;29.41;101028.82;3560894;81;25955;-87
2021/06/14 12:50:34;;;;;;;9.70;4.92;;;;;;;30.51;30.25;101014.48;3567464;80;98731;-87
2021/06/14 12:55:41;;;;;;;10.68;4.95;;;;;;;29.92;31.24;101008.95;3577333;81;26514;-86
2021/06/14 13:00:45;;;;;;;10.93;5.00;;;;;;;;;;3561959;81;99034;-87
2021/06/14 13:05:48;;;;;;;10.63;4.67;;;;;;;30.06;30.60;101003.20;3570203;81;25860;-85
2021/06/14 13:10:52;;;;;;;10.50;5.30;;;;;;;29.84;30.47;101000.70;3567767;80;98699;-87
2021/06/14 13:16:07;;;;;;;13.43;5.00;;;;;;;29.59;30.91;100997.91;3574046;81;26055;-86
2021/06/14 13:21:15;;;;;;;10.90;4.75;;;;;;;29.60;31.52;100985.30;3567273;81;98762;-83
2021/06/14 13:26:18;;;;;;;11.95;4.35;;;;;;;29.68;31.85;100987.85;3572167;81;26305;-82
2021/06/14 13:31:22;;;;;;;11.33;4.85;;;;;;;29.58;32.00;100985.00;3569982;81;98577;-87
2021/06/14 13:36:33;;;;;;;10.90;4.95;;;;;;;29.90;31.02;100978.84;3572551;81;26505;-88
2021/06/14 13:41:34;;;;;;;13.40;5.20;;;;;;;29.73;31.82;100975.80;3567133;80;98800;-83
2021/06/14 13:46:45;;;;;;;11.15;5.10;;;;;;;29.87;30.88;100974.94;3571076;81;26297;-86
2021/06/14 13:51:52;;;;;;;13.95;6.15;;;;;;;29.40;30.26;100964.58;3560738;81;98851;-89
2021/06/14 13:56:53;;;;;;;9.33;4.75;;;;;;;29.07;31.50;100962.65;3556921;81;99035;-86
2021/06/14 14:01:58;;;;;;;10.58;4.80;;;;;;;28.64;32.72;100965.63;3487537;83;35406;-86
2021/06/14 14:06:59;;;;;;;;;;;;;;;28.75;32.70;100965.83;3470311;83;98993;-85
2021/06/14 14:12:03;;;;;;;8.13;4.62;;;;;;;28.72;32.41;100966.03;3466458;83;26587;-86
2021/06/14 14:17:04;;;;;;;12.77;5.00;;;;;;;28.56;31.87;100955.94;3435609;84;98991;-86
2021/06/14 14:22:05;;;;;;;12.45;4.42;;;;;;;28.77;32.27;100958.27;3419289;84;26132;-86
2021/06/14 14:27:06;;;;;;;10.03;5.47;;;;;;;28.56;31.71;100951.70;3546158;81;99034;-83
2021/06/14 14:32:09;;;;;;;11.03;5.28;;;;;;;28.51;31.62;100950.20;3574035;81;34875;-82
2021/06/14 14:37:24;;;;;;;12.85;5.03;;;;;;;28.40;31.86;100938.66;3560492;81;99024;-85
2021/06/14 14:42:25;;;;;;;11.73;5.62;;;;;;;28.44;32.07;100937.84;3567906;81;25975;-85
2021/06/14 14:47:27;;;;;;;10.43;4.92;;;;;;;28.19;32.60;100936.31;3553298;81;99115;-84
2021/06/14 14:52:28;;;;;;;10.53;5.65;;;;;;;27.88;33.07;100934.53;3567459;81;25962;-85
2021/06/14 14:57:29;;;;;;;11.18;4.95;;;;;;;27.95;33.45;100917.82;3566603;81;99158;-84
2021/06/14 15:02:31;;;;;;;12.40;5.22;;;;;;;27.81;33.19;100919.97;3564147;81;35453;-84
2021/06/14 15:07:32;;;;;;;9.45;5.17;;;;;;;27.35;33.79;100919.45;3545633;80;99025;-85
2021/06/14 15:12:33;;;;;;;12.03;5.30;;;;;;;27.20;33.99;100914.35;3551662;81;35366;-86
2021/06/14 15:17:36;;;;;;;11.25;4.72;;;;;;;27.05;34.81;100912.69;3545106;81;99215;-86
2021/06/14 15:22:39;;;;;;;10.50;4.50;;;;;;;27.06;34.72;100909.38;3551748;81;31062;-86
2021/06/14 15:27:41;;;;;;;10.50;4.78;;;;;;;26.93;34.76;100911.66;3518253;81;99256;-86
2021/06/14 15:32:49;;;;;;;8.05;4.15;;;;;;;26.69;35.35;100910.78;3552042;81;25925;-85
2021/06/14 15:37:56;;;;;;;13.28;4.87;;;;;;;26.27;35.63;100914.13;3520547;81;98878;-86
2021/06/14 15:42:59;;;;;;;9.50;4.22;;;;;;;26.24;35.93;100895.95;3546612;81;34850;-86
2021/06/14 15:48:04;;;;;;;11.50;4.58;;;;;;;26.08;36.55;100897.09;3542720;81;98541;-85
2021/06/14 15:53:06;;;;;;;;;;;;;;;26.16;36.38;100898.31;3549729;81;26520;-84
2021/06/14 15:58:07;;;;;;;15.32;4.55;;;;;;;26.08;36.38;100899.11;3541113;81;85130;-87
2021/06/14 16:03:08;;;;;;;8.88;3.87;;;;;;;25.97;36.20;100890.34;3557290;81;34947;-88
2021/06/14 16:08:09;;;;;;;11.30;4.00;;;;;;;25.65;36.65;100890.93;3556319;81;99036;-88
2021/06/14 16:13:12;;;;;;;8.53;3.92;;;;;;;25.39;36.46;100883.39;3582762;80;34877;-88
2021/06/14 16:18:14;;;;;;;8.13;3.55;;;;;;;25.31;36.38;100886.36;3574301;80;98985;-88
2021/06/14 16:23:15;;;;;;;8.85;3.60;;;;;;;25.18;36.85;100873.62;3578536;80;36016;-88
2021/06/14 16:28:16;;;;;;;7.53;3.42;;;;;;;24.94;36.90;100866.34;3571098;81;98929;-88
2021/06/14 16:33:17;;;;;;;9.83;4.50;;;;;;;24.71;37.34;100861.26;3583442;81;35309;-87
2021/06/14 16:38:18;;;;;;;8.70;4.08;;;;;;;24.66;37.03;100859.66;3572494;81;98947;-88
2021/06/14 16:43:19;;;;;;;7.40;3.15;;;;;;;24.53;36.74;100847.69;3583387;81;35438;-87
2021/06/14 16:48:21;;;;;;;7.97;3.72;;;;;;;24.38;37.02;100859.33;3576602;81;98908;-87
2021/06/14 16:53:22;;;;;;;8.25;3.45;;;;;;;24.18;37.31;100854.06;3568234;81;35570;-87
2021/06/14 16:58:23;;;;;;;9.90;3.52;;;;;;;24.03;37.00;100847.39;3545679;81;98501;-88
2021/06/14 17:03:24;;;;;;;9.35;4.10;;;;;;;23.90;37.60;100848.70;3587582;80;36001;-87
2021/06/14 17:08:25;;;;;;;8.40;3.80;;;;;;;23.75;37.98;100837.16;3565292;81;98850;-87
2021/06/14 17:13:26;;;;;;;7.65;3.42;;;;;;;23.64;37.90;100845.19;3554306;81;34049;-88
2021/06/14 17:18:27;;;;;;;7.75;3.35;;;;;;;23.44;38.22;100846.09;3568376;81;98612;-88
2021/06/14 17:23:27;;;;;;;9.28;3.83;;;;;;;23.29;38.93;100842.84;3560293;81;34956;-87
2021/06/14 17:28:28;;;;;;;8.98;3.85;;;;;;;23.13;38.95;100835.33;3559643;81;99021;-87
2021/06/14 17:33:29;;;;;;;8.98;4.22;;;;;;;23.06;39.40;100835.55;3535203;81;32643;-87
2021/06/14 17:38:30;;;;;;;9.90;3.95;;;;;;;22.97;39.65;100829.06;3559028;81;98663;-87
2021/06/14 17:43:31;;;;;;;9.60;3.62;;;;;;;22.88;39.71;100821.32;3571715;81;32448;-87
2021/06/14 17:48:32;;;;;;;9.40;4.62;;;;;;;22.78;40.20;100812.63;3574111;80;99065;-87
2021/06/14 17:53:35;;;;;;;9.40;3.87;;;;;;;22.71;40.22;100812.87;3566112;81;31136;-87
2021/06/14 17:58:36;;;;;;;8.60;3.85;;;;;;;22.65;40.74;100806.25;3548807;81;98559;-87
2021/06/14 18:03:38;;;;;;;10.48;4.10;;;;;;;22.57;40.66;100806.93;3571338;81;32558;-89
2021/06/14 18:08:39;;;;;;;31.50;5.80;;;;;;;22.46;41.30;100802.27;3574177;80;98966;-86
2021/06/14 18:13:41;;;;;;;10.35;4.05;;;;;;;22.37;41.50;100802.12;3571631;81;32436;-86
2021/06/14 18:18:42;;;;;;;11.25;4.03;;;;;;;22.29;41.79;100802.18;3569489;81;98926;-86
2021/06/14 18:23:44;;;;;;;12.88;5.05;;;;;;;22.21;42.59;100796.61;3575024;81;32486;-86
2021/06/14 18:28:44;;;;;;;10.00;3.90;;;;;;;22.10;42.55;100798.95;3560326;81;99546;-86
2021/06/14 18:33:47;;;;;;;8.13;3.58;;;;;;;22.03;43.08;100808.38;3572997;81;31983;-86
2021/06/14 18:38:48;;;;;;;9.50;4.35;;;;;;;21.94;43.33;100804.03;3573582;80;98819;-85
2021/06/14 18:43:51;;;;;;;10.23;4.20;;;;;;;21.85;43.52;100798.91;3568399;81;33738;-86
2021/06/14 18:48:52;;;;;;;10.18;4.12;;;;;;;21.75;44.77;100794.39;3576346;80;99012;-85
2021/06/14 18:53:56;;;;;;;10.65;4.40;;;;;;;21.53;46.26;100798.36;3567916;80;32962;-86
2021/06/14 18:58:57;;;;;;;9.28;4.08;;;;;;;21.35;47.04;100798.07;3573290;80;99170;-86
2021/06/14 19:03:58;;;;;;;10.88;4.35;;;;;;;21.15;47.85;100794.59;3571371;81;32458;-85
2021/06/14 19:09:01;;;;;;;7.95;3.92;;;;;;;21.02;47.80;100798.55;3561387;81;99346;-86
2021/06/14 19:14:05;;;;;;;10.60;3.85;;;;;;;20.84;48.77;100793.99;3572046;81;33769;-85
2021/06/14 19:19:06;;;;;;;10.55;4.67;;;;;;;20.62;49.52;100792.34;3569302;81;99015;-85
2021/06/14 19:24:07;;;;;;;9.08;4.45;;;;;;;20.43;50.03;100795.20;3581771;81;32477;-87
2021/06/14 19:29:08;;;;;;;10.38;4.70;;;;;;;20.24;50.25;100803.02;3569458;81;98822;-86
2021/06/14 19:34:08;;;;;;;11.88;5.50;;;;;;;20.09;50.90;100802.55;3575866;81;32514;-86
2021/06/14 19:39:12;;;;;;;13.35;5.72;;;;;;;19.88;51.69;100805.76;3569920;81;98941;-86
2021/06/14 19:44:12;;;;;;;12.60;5.50;;;;;;;19.70;52.29;100816.52;3572848;81;32487;-87
2021/06/14 19:49:13;;;;;;;12.20;4.30;;;;;;;19.17;53.70;100802.73;3569563;81;99033;-86
2021/06/14 19:54:14;;;;;;;12.30;5.12;;;;;;;19.17;53.70;100802.73;3576295;80;32135;-85
2021/06/14 19:59:15;;;;;;;14.00;6.05;;;;;;;19.14;54.15;100823.73;3566240;80;99071;-86
2021/06/14 20:04:16;;;;;;;14.70;5.80;;;;;;;18.98;54.77;100826.39;3573038;80;27198;-87
2021/06/14 20:09:17;;;;;;;14.10;5.87;;;;;;;18.82;55.36;100822.88;3569490;81;99073;-85
2021/06/14 20:14:18;;;;;;;10.55;5.62;;;;;;;18.73;55.40;100819.02;3576772;81;26456;-86
2021/06/14 20:19:19;;;;;;;9.85;4.85;;;;;;;18.62;55.65;100818.40;3570642;81;98762;-86
2021/06/14 20:24:19;;;;;;;11.90;5.92;;;;;;;18.53;56.22;100816.14;3575322;81;26418;-84
2021/06/14 20:29:21;;;;;;;12.93;5.53;;;;;;;18.38;56.73;100819.58;3573922;81;99127;-85
2021/06/14 20:34:22;;;;;;;17.10;6.80;;;;;;;18.23;57.37;100815.37;3577420;81;26354;-84
2021/06/14 20:39:23;;;;;;;13.20;6.27;;;;;;;18.10;57.74;100819.94;3568169;81;99112;-84
2021/06/14 20:44:24;;;;;;;14.37;7.37;;;;;;;17.97;58.20;100823.87;3554089;81;33304;-86
2021/06/14 20:49:24;;;;;;;16.83;8.90;;;;;;;17.87;58.61;100830.98;3569618;81;99050;-82
2021/06/14 20:54:25;;;;;;;25.53;9.53;;;;;;;17.73;59.45;100830.55;3570074;81;33240;-82
2021/06/14 20:59:26;;;;;;;20.00;9.93;;;;;;;17.61;59.97;100834.46;3569935;80;98954;-85
2021/06/14 21:04:27;;;;;;;20.17;8.13;;;;;;;17.44;60.67;100826.48;3572950;81;33320;-85
2021/06/14 21:09:28;;;;;;;17.65;8.03;;;;;;;17.29;60.86;100829.80;3573085;81;99262;-84
2021/06/14 21:14:29;;;;;;;15.67;8.17;;;;;;;17.16;61.27;100829.52;3573724;81;33771;-84
2021/06/14 21:19:30;;;;;;;22.30;9.10;;;;;;;17.03;61.75;100834.02;3561551;80;99237;-85
2021/06/14 21:24:31;;;;;;;44.07;16.30;;;;;;;16.91;61.89;100835.11;3576274;81;26693;-85
2021/06/14 21:29:32;;;;;;;37.70;15.10;;;;;;;16.84;62.16;100835.95;3580773;80;99462;-85
2021/06/14 21:34:33;;;;;;;21.73;9.63;;;;;;;16.71;62.70;100825.14;3575374;81;26021;-86
2021/06/14 21:39:35;;;;;;;21.33;9.77;;;;;;;16.59;62.91;100820.66;3566310;81;99103;-86
2021/06/14 21:44:36;;;;;;;18.73;8.07;;;;;;;16.52;63.20;100812.38;3581000;81;31715;-85
2021/06/14 21:49:36;;;;;;;16.70;8.30;;;;;;;16.41;63.36;100820.00;3571164;80;99390;-83
2021/06/14 21:54:37;;;;;;;15.33;7.17;;;;;;;16.28;63.84;100814.67;3572731;81;32883;-84
2021/06/14 21:59:38;;;;;;;16.43;7.07;;;;;;;16.17;64.22;100811.16;3574074;81;98954;-83
2021/06/14 22:04:39;;;;;;;13.20;6.80;;;;;;;16.09;64.75;100813.19;3581147;81;31599;-82
2021/06/14 22:09:42;;;;;;;13.03;6.17;;;;;;;16.01;64.85;100820.56;3568659;81;98709;-83
2021/06/14 22:14:43;;;;;;;14.07;6.33;;;;;;;15.95;64.90;100815.24;3576465;81;31743;-84
2021/06/14 22:19:44;;;;;;;12.53;6.33;;;;;;;15.87;64.94;100808.92;3567833;80;99016;-84
2021/06/14 22:24:45;;;;;;;12.90;6.13;;;;;;;15.82;65.12;100808.57;3575773;81;31697;-84
2021/06/14 22:29:48;;;;;;;13.20;6.07;;;;;;;15.74;65.34;100805.03;3574344;81;99063;-84
2021/06/14 22:34:48;;;;;;;15.27;6.73;;;;;;;15.65;65.51;100807.43;3574063;81;32339;-83
2021/06/14 22:39:49;;;;;;;14.40;6.87;;;;;;;15.59;66.06;100804.88;3567813;80;99041;-84
2021/06/14 22:44:51;;;;;;;16.07;7.17;;;;;;;15.52;66.07;100804.91;3576420;80;32685;-84
2021/06/14 22:49:52;;;;;;;15.53;7.05;;;;;;;15.48;65.93;100796.41;3561710;81;99028;-84
2021/06/14 22:54:53;;;;;;;14.87;7.80;;;;;;;15.39;66.11;100798.22;3567515;81;31634;-83
2021/06/14 22:59:54;;;;;;;14.73;6.80;;;;;;;15.32;66.16;100790.48;3560463;81;99020;-84
2021/06/14 23:04:54;;;;;;;14.55;6.58;;;;;;;15.24;66.51;100791.09;3568818;81;31606;-84
2021/06/14 23:09:55;;;;;;;14.60;7.23;;;;;;;15.19;66.80;100784.55;3501676;80;98935;-84
2021/06/14 23:14:56;;;;;;;16.00;7.30;;;;;;;15.12;66.96;100782.39;3503285;82;25957;-85
2021/06/14 23:19:57;;;;;;;12.20;6.33;;;;;;;15.05;66.87;100783.80;3488914;82;99131;-85